FJI914 YSSY-NFFN
Flight info
| Callsign | FJI914 |
|---|---|
| Flight time | 3h 20m |
| Altitude | 41000 |
| Route | MARUB7/34R TESAT G595 SOTKI 30S160E UBLIN A579 TUTMU |
| Aircraft | A359/H-SDE2E3GHIJ3J4J5LM1ORWXY/LB1D1 |
Departure
| Time | 2026-05-04 05:25 |
|---|---|
| Airport | Sydney Kingsford Smith International Airport (YSSY) |
Arrival
| Time | 2026-05-04 08:46 |
|---|---|
| Airport | Nadi International Airport (NFFN) |
| Time | Latitude | Longitude | Altitude | Speed | Heading |
|---|---|---|---|---|---|
| 2026-05-04 04:48 | -33.93978 | 151.16681 | 36 ft | 0 kts | 304° |
| 2026-05-04 05:09 | -33.94016 | 151.16783 | 35 ft | 3 kts | 261° |
| 2026-05-04 05:09 | -33.94013 | 151.16798 | 36 ft | 3 kts | 198° |
| 2026-05-04 05:10 | -33.94006 | 151.16799 | 36 ft | 1 kts | 164° |
| 2026-05-04 05:10 | -33.94005 | 151.16799 | 36 ft | 0 kts | 164° |
| 2026-05-04 05:14 | -33.94032 | 151.16809 | 36 ft | 6 kts | 158° |
| 2026-05-04 05:15 | -33.94053 | 151.16856 | 36 ft | 7 kts | 91° |
| 2026-05-04 05:15 | -33.94040 | 151.16928 | 36 ft | 10 kts | 75° |
| 2026-05-04 05:15 | -33.94022 | 151.17008 | 36 ft | 7 kts | 74° |
| 2026-05-04 05:15 | -33.94008 | 151.17068 | 36 ft | 9 kts | 73° |
| 2026-05-04 05:16 | -33.93992 | 151.17134 | 36 ft | 8 kts | 74° |
| 2026-05-04 05:16 | -33.93983 | 151.17194 | 36 ft | 8 kts | 95° |
| 2026-05-04 05:16 | -33.94017 | 151.17234 | 35 ft | 8 kts | 158° |
| 2026-05-04 05:16 | -33.94076 | 151.17252 | 35 ft | 10 kts | 168° |
| 2026-05-04 05:17 | -33.94157 | 151.17273 | 35 ft | 13 kts | 168° |
| 2026-05-04 05:17 | -33.94233 | 151.17293 | 35 ft | 11 kts | 168° |
| 2026-05-04 05:17 | -33.94314 | 151.17314 | 36 ft | 11 kts | 167° |
| 2026-05-04 05:17 | -33.94394 | 151.17335 | 37 ft | 13 kts | 168° |
| 2026-05-04 05:18 | -33.94486 | 151.17359 | 37 ft | 13 kts | 168° |
| 2026-05-04 05:18 | -33.94569 | 151.17380 | 37 ft | 6 kts | 167° |
| 2026-05-04 05:18 | -33.94649 | 151.17401 | 37 ft | 11 kts | 168° |
| 2026-05-04 05:18 | -33.94723 | 151.17420 | 37 ft | 12 kts | 168° |
| 2026-05-04 05:19 | -33.94805 | 151.17441 | 36 ft | 12 kts | 168° |
| 2026-05-04 05:19 | -33.94896 | 151.17465 | 36 ft | 14 kts | 168° |
| 2026-05-04 05:19 | -33.94998 | 151.17491 | 36 ft | 15 kts | 168° |
| 2026-05-04 05:19 | -33.95090 | 151.17515 | 36 ft | 13 kts | 168° |
| 2026-05-04 05:20 | -33.95185 | 151.17540 | 35 ft | 15 kts | 168° |
| 2026-05-04 05:20 | -33.95292 | 151.17568 | 35 ft | 15 kts | 168° |
| 2026-05-04 05:20 | -33.95390 | 151.17593 | 36 ft | 14 kts | 168° |
| 2026-05-04 05:20 | -33.95486 | 151.17618 | 36 ft | 14 kts | 168° |
| 2026-05-04 05:21 | -33.95588 | 151.17644 | 36 ft | 14 kts | 168° |
| 2026-05-04 05:21 | -33.95682 | 151.17669 | 36 ft | 13 kts | 167° |
| 2026-05-04 05:21 | -33.95750 | 151.17687 | 37 ft | 10 kts | 168° |
| 2026-05-04 05:21 | -33.95825 | 151.17706 | 36 ft | 12 kts | 168° |
| 2026-05-04 05:22 | -33.95918 | 151.17730 | 36 ft | 15 kts | 168° |
| 2026-05-04 05:22 | -33.96026 | 151.17758 | 36 ft | 17 kts | 168° |
| 2026-05-04 05:22 | -33.96139 | 151.17787 | 36 ft | 17 kts | 168° |
| 2026-05-04 05:22 | -33.96234 | 151.17812 | 36 ft | 15 kts | 168° |
| 2026-05-04 05:23 | -33.96336 | 151.17839 | 36 ft | 12 kts | 168° |
| 2026-05-04 05:23 | -33.96411 | 151.17870 | 36 ft | 12 kts | 144° |
| 2026-05-04 05:23 | -33.96432 | 151.17943 | 36 ft | 10 kts | 86° |
| 2026-05-04 05:23 | -33.96417 | 151.18017 | 36 ft | 8 kts | 63° |
| 2026-05-04 05:24 | -33.96368 | 151.18047 | 36 ft | 9 kts | 1° |
| 2026-05-04 05:24 | -33.96300 | 151.18032 | 36 ft | 15 kts | 348° |
| 2026-05-04 05:24 | -33.95953 | 151.17943 | 35 ft | 88 kts | 347° |
| 2026-05-04 05:24 | -33.95129 | 151.17728 | 34 ft | 151 kts | 348° |
| 2026-05-04 05:25 | -33.93948 | 151.17419 | 244 ft | 188 kts | 349° |
| 2026-05-04 05:25 | -33.92661 | 151.17096 | 1002 ft | 191 kts | 349° |
| 2026-05-04 05:25 | -33.91417 | 151.16819 | 2157 ft | 173 kts | 348° |
| 2026-05-04 05:25 | -33.90297 | 151.16503 | 3136 ft | 160 kts | 348° |
| 2026-05-04 05:26 | -33.89179 | 151.16187 | 3654 ft | 174 kts | 347° |
| 2026-05-04 05:26 | -33.88076 | 151.15394 | 3906 ft | 202 kts | 315° |
| 2026-05-04 05:26 | -33.87227 | 151.13924 | 4284 ft | 227 kts | 304° |
| 2026-05-04 05:26 | -33.86391 | 151.12196 | 4747 ft | 246 kts | 303° |
| 2026-05-04 05:27 | -33.85512 | 151.10402 | 5525 ft | 251 kts | 306° |
| 2026-05-04 05:28 | -33.79111 | 151.18086 | 10828 ft | 335 kts | 99° |
| 2026-05-04 05:29 | -33.79533 | 151.20884 | 11249 ft | 353 kts | 97° |
| 2026-05-04 05:29 | -33.79912 | 151.23839 | 11936 ft | 361 kts | 96° |
| 2026-05-04 05:29 | -33.80278 | 151.26852 | 12694 ft | 368 kts | 96° |
| 2026-05-04 05:29 | -33.80655 | 151.29913 | 13444 ft | 372 kts | 97° |
| 2026-05-04 05:31 | -33.83601 | 151.52475 | 18399 ft | 407 kts | 97° |
| 2026-05-04 05:31 | -33.84040 | 151.55820 | 19012 ft | 412 kts | 97° |
| 2026-05-04 05:32 | -33.84486 | 151.59247 | 19653 ft | 417 kts | 97° |
| 2026-05-04 05:32 | -33.84936 | 151.62717 | 20301 ft | 421 kts | 97° |
| 2026-05-04 05:32 | -33.85392 | 151.66216 | 20918 ft | 426 kts | 97° |
| 2026-05-04 05:33 | -33.86322 | 151.73355 | 22139 ft | 436 kts | 97° |
| 2026-05-04 05:33 | -33.86791 | 151.76978 | 22712 ft | 441 kts | 97° |
| 2026-05-04 05:33 | -33.87261 | 151.80638 | 23258 ft | 444 kts | 97° |
| 2026-05-04 05:33 | -33.87738 | 151.84345 | 23803 ft | 452 kts | 97° |
| 2026-05-04 05:34 | -33.88221 | 151.88089 | 24414 ft | 455 kts | 97° |
| 2026-05-04 05:34 | -33.88706 | 151.91877 | 24940 ft | 460 kts | 97° |
| 2026-05-04 05:34 | -33.89193 | 151.95706 | 25413 ft | 466 kts | 97° |
| 2026-05-04 05:34 | -33.89686 | 151.99585 | 25891 ft | 470 kts | 97° |
| 2026-05-04 05:35 | -33.90177 | 152.03444 | 26373 ft | 475 kts | 96° |
| 2026-05-04 05:35 | -33.90544 | 152.07411 | 26818 ft | 478 kts | 90° |
| 2026-05-04 05:35 | -33.90678 | 152.11422 | 27281 ft | 482 kts | 89° |
| 2026-05-04 05:35 | -33.90750 | 152.15473 | 27753 ft | 486 kts | 88° |
| 2026-05-04 05:36 | -33.90788 | 152.19561 | 28216 ft | 490 kts | 87° |
| 2026-05-04 05:36 | -33.90808 | 152.23682 | 28541 ft | 497 kts | 87° |
| 2026-05-04 05:36 | -33.90821 | 152.27887 | 28739 ft | 507 kts | 87° |
| 2026-05-04 05:36 | -33.90834 | 152.32170 | 28924 ft | 517 kts | 87° |
| 2026-05-04 05:37 | -33.90852 | 152.36535 | 29224 ft | 524 kts | 87° |
| 2026-05-04 05:37 | -33.90875 | 152.40946 | 29639 ft | 528 kts | 87° |
| 2026-05-04 05:37 | -33.90900 | 152.45325 | 30003 ft | 532 kts | 87° |
| 2026-05-04 05:38 | -33.90948 | 152.54301 | 30663 ft | 541 kts | 87° |
| 2026-05-04 05:38 | -33.90967 | 152.58853 | 30935 ft | 546 kts | 87° |
| 2026-05-04 05:38 | -33.90986 | 152.63443 | 31291 ft | 549 kts | 87° |
| 2026-05-04 05:38 | -33.91001 | 152.68053 | 31645 ft | 553 kts | 87° |
| 2026-05-04 05:39 | -33.91014 | 152.72698 | 31946 ft | 556 kts | 87° |
| 2026-05-04 05:39 | -33.91042 | 152.82079 | 32480 ft | 563 kts | 87° |
| 2026-05-04 05:39 | -33.91054 | 152.86818 | 32693 ft | 568 kts | 87° |
| 2026-05-04 05:40 | -33.91068 | 152.96275 | 33473 ft | 567 kts | 87° |
| 2026-05-04 05:40 | -33.91072 | 153.01018 | 33824 ft | 568 kts | 87° |
| 2026-05-04 05:40 | -33.91074 | 153.05788 | 34108 ft | 570 kts | 87° |
| 2026-05-04 05:41 | -33.91075 | 153.10564 | 34417 ft | 570 kts | 87° |
| 2026-05-04 05:41 | -33.91075 | 153.15351 | 34730 ft | 571 kts | 87° |
| 2026-05-04 05:41 | -33.91072 | 153.20145 | 35042 ft | 572 kts | 87° |
| 2026-05-04 05:41 | -33.91065 | 153.24948 | 35281 ft | 574 kts | 87° |
| 2026-05-04 05:42 | -33.91054 | 153.29775 | 35530 ft | 576 kts | 87° |
| 2026-05-04 05:42 | -33.91045 | 153.34542 | 35811 ft | 576 kts | 87° |
| 2026-05-04 05:42 | -33.91033 | 153.39391 | 36020 ft | 579 kts | 87° |
| 2026-05-04 05:42 | -33.91021 | 153.44237 | 36254 ft | 580 kts | 87° |
| 2026-05-04 05:43 | -33.91008 | 153.49093 | 36524 ft | 581 kts | 87° |
| 2026-05-04 05:43 | -33.90993 | 153.53979 | 36727 ft | 583 kts | 87° |
| 2026-05-04 05:43 | -33.90977 | 153.58866 | 36978 ft | 584 kts | 87° |
| 2026-05-04 05:45 | -33.90785 | 153.93081 | 38396 ft | 588 kts | 86° |
| 2026-05-04 05:45 | -33.90751 | 153.98018 | 38551 ft | 590 kts | 86° |
| 2026-05-04 05:47 | -33.90458 | 154.32629 | 40116 ft | 587 kts | 87° |
| 2026-05-04 05:47 | -33.90410 | 154.37540 | 40393 ft | 584 kts | 87° |
| 2026-05-04 05:47 | -33.90360 | 154.42415 | 40629 ft | 583 kts | 87° |
| 2026-05-04 05:48 | -33.90312 | 154.47282 | 40879 ft | 579 kts | 87° |
| 2026-05-04 05:48 | -33.90248 | 154.52133 | 41014 ft | 579 kts | 86° |
| 2026-05-04 05:48 | -33.89602 | 154.61721 | 41043 ft | 577 kts | 81° |
| 2026-05-04 05:49 | -33.88633 | 154.71336 | 41046 ft | 579 kts | 80° |
| 2026-05-04 05:49 | -33.87709 | 154.81015 | 41048 ft | 585 kts | 81° |
| 2026-05-04 05:51 | -33.84247 | 155.15225 | 41055 ft | 585 kts | 68° |
| 2026-05-04 05:51 | -33.82702 | 155.19696 | 41054 ft | 574 kts | 55° |
| 2026-05-04 05:52 | -33.80538 | 155.23667 | 41064 ft | 562 kts | 44° |
| 2026-05-04 05:52 | -33.78071 | 155.27290 | 41059 ft | 557 kts | 41° |
| 2026-05-04 05:52 | -33.72926 | 155.34196 | 41065 ft | 554 kts | 39° |
| 2026-05-04 05:54 | -33.52117 | 155.61586 | 41070 ft | 556 kts | 40° |
| 2026-05-04 05:55 | -33.46911 | 155.68479 | 41072 ft | 557 kts | 40° |
| 2026-05-04 05:55 | -33.41698 | 155.75354 | 41074 ft | 557 kts | 40° |
| 2026-05-04 05:56 | -33.36523 | 155.82167 | 41077 ft | 557 kts | 40° |
| 2026-05-04 05:56 | -33.31301 | 155.89030 | 41080 ft | 557 kts | 40° |
| 2026-05-04 05:57 | -33.26073 | 155.95881 | 41113 ft | 557 kts | 40° |
| 2026-05-04 05:57 | -33.21729 | 156.01567 | 41113 ft | 557 kts | 40° |
| 2026-05-04 05:58 | -33.16491 | 156.08417 | 41117 ft | 558 kts | 40° |
| 2026-05-04 05:58 | -33.11250 | 156.15254 | 41110 ft | 558 kts | 40° |
| 2026-05-04 05:59 | -33.06005 | 156.22080 | 41126 ft | 559 kts | 40° |
| 2026-05-04 05:59 | -33.00749 | 156.28914 | 41114 ft | 560 kts | 40° |
| 2026-05-04 06:00 | -32.95481 | 156.35749 | 41111 ft | 560 kts | 40° |
| 2026-05-04 06:00 | -32.90202 | 156.42582 | 41125 ft | 560 kts | 40° |
| 2026-05-04 06:01 | -32.84917 | 156.49412 | 41106 ft | 562 kts | 40° |
| 2026-05-04 06:03 | -32.63724 | 156.76671 | 41127 ft | 563 kts | 40° |
| 2026-05-04 06:05 | -32.39746 | 157.07265 | 41128 ft | 565 kts | 40° |
| 2026-05-04 06:06 | -32.34388 | 157.14066 | 41137 ft | 564 kts | 40° |
| 2026-05-04 06:06 | -32.29025 | 157.20857 | 41137 ft | 565 kts | 40° |
| 2026-05-04 06:07 | -32.23661 | 157.27644 | 41138 ft | 565 kts | 40° |
| 2026-05-04 06:07 | -32.18277 | 157.34441 | 41138 ft | 566 kts | 40° |
| 2026-05-04 06:08 | -32.12921 | 157.41184 | 41138 ft | 566 kts | 40° |
| 2026-05-04 06:08 | -32.07530 | 157.47964 | 41146 ft | 567 kts | 40° |
| 2026-05-04 06:09 | -32.02120 | 157.54752 | 41146 ft | 567 kts | 40° |
| 2026-05-04 06:11 | -31.80453 | 157.81837 | 41146 ft | 568 kts | 40° |
| 2026-05-04 06:13 | -31.58751 | 158.08752 | 41156 ft | 568 kts | 40° |
| 2026-05-04 06:14 | -31.39696 | 158.32227 | 41155 ft | 569 kts | 40° |
| 2026-05-04 06:15 | -31.34237 | 158.38926 | 41155 ft | 569 kts | 40° |
| 2026-05-04 06:15 | -31.28771 | 158.45622 | 41156 ft | 569 kts | 40° |
| 2026-05-04 06:16 | -31.23294 | 158.52317 | 41155 ft | 569 kts | 40° |
| 2026-05-04 06:16 | -31.17818 | 158.59000 | 41155 ft | 569 kts | 40° |
| 2026-05-04 06:17 | -31.12332 | 158.65684 | 41156 ft | 570 kts | 40° |
| 2026-05-04 06:17 | -31.06846 | 158.72356 | 41155 ft | 570 kts | 40° |
| 2026-05-04 06:18 | -31.01351 | 158.79026 | 41156 ft | 570 kts | 40° |
| 2026-05-04 06:20 | -30.79355 | 159.05610 | 41155 ft | 570 kts | 41° |
| 2026-05-04 06:21 | -30.65576 | 159.22167 | 41156 ft | 572 kts | 41° |
| 2026-05-04 06:22 | -30.60039 | 159.28800 | 41156 ft | 572 kts | 41° |
| 2026-05-04 06:25 | -30.21182 | 159.75027 | 41155 ft | 573 kts | 41° |
| 2026-05-04 06:26 | -30.15604 | 159.81617 | 41156 ft | 573 kts | 41° |
| 2026-05-04 06:26 | -30.10020 | 159.88203 | 41156 ft | 573 kts | 41° |
| 2026-05-04 06:27 | -29.96421 | 160.05091 | 41155 ft | 577 kts | 47° |
| 2026-05-04 06:28 | -29.91396 | 160.12238 | 41155 ft | 577 kts | 47° |
| 2026-05-04 06:28 | -29.86366 | 160.19456 | 41155 ft | 577 kts | 47° |
| 2026-05-04 06:29 | -29.81322 | 160.26669 | 41156 ft | 577 kts | 47° |
| 2026-05-04 06:29 | -29.76275 | 160.33853 | 41155 ft | 577 kts | 47° |
| 2026-05-04 06:30 | -29.71217 | 160.41033 | 41155 ft | 577 kts | 47° |
| 2026-05-04 06:30 | -29.66160 | 160.48198 | 41155 ft | 577 kts | 47° |
| 2026-05-04 06:31 | -29.61126 | 160.55320 | 41156 ft | 577 kts | 47° |
| 2026-05-04 06:31 | -29.56062 | 160.62473 | 41155 ft | 577 kts | 47° |
| 2026-05-04 06:33 | -29.35758 | 160.91023 | 41155 ft | 576 kts | 48° |
| 2026-05-04 06:34 | -29.30705 | 160.98098 | 41163 ft | 576 kts | 48° |
| 2026-05-04 06:34 | -29.25621 | 161.05204 | 41164 ft | 576 kts | 48° |
| 2026-05-04 06:36 | -29.05275 | 161.33517 | 41132 ft | 576 kts | 48° |
| 2026-05-04 06:37 | -29.00169 | 161.40592 | 41127 ft | 576 kts | 48° |
| 2026-05-04 06:37 | -28.95074 | 161.47641 | 41127 ft | 576 kts | 48° |
| 2026-05-04 06:38 | -28.89965 | 161.54695 | 41128 ft | 576 kts | 48° |
| 2026-05-04 06:40 | -28.69535 | 161.82788 | 41128 ft | 575 kts | 48° |
| 2026-05-04 06:40 | -28.64410 | 161.89805 | 41128 ft | 575 kts | 48° |
| 2026-05-04 06:41 | -28.59289 | 161.96806 | 41127 ft | 575 kts | 48° |
| 2026-05-04 06:41 | -28.54164 | 162.03798 | 41128 ft | 575 kts | 49° |
| 2026-05-04 06:42 | -28.49073 | 162.10736 | 41129 ft | 574 kts | 49° |
| 2026-05-04 06:44 | -28.29406 | 162.37424 | 41128 ft | 574 kts | 48° |
| 2026-05-04 06:44 | -28.24268 | 162.44367 | 41129 ft | 574 kts | 48° |
| 2026-05-04 06:45 | -28.19125 | 162.51308 | 41127 ft | 574 kts | 48° |
| 2026-05-04 06:45 | -28.14006 | 162.58202 | 41128 ft | 575 kts | 48° |
| 2026-05-04 06:46 | -28.08858 | 162.65126 | 41128 ft | 575 kts | 48° |
| 2026-05-04 06:46 | -28.03698 | 162.72055 | 41128 ft | 575 kts | 48° |
| 2026-05-04 06:48 | -27.83116 | 162.99699 | 41111 ft | 575 kts | 54° |
| 2026-05-04 06:50 | -27.64892 | 163.29415 | 41124 ft | 575 kts | 56° |
| 2026-05-04 06:51 | -27.60381 | 163.36797 | 41124 ft | 575 kts | 56° |
| 2026-05-04 06:51 | -27.55833 | 163.44220 | 41111 ft | 575 kts | 56° |
| 2026-05-04 06:52 | -27.51279 | 163.51641 | 41117 ft | 575 kts | 56° |
| 2026-05-04 06:52 | -27.46725 | 163.59052 | 41111 ft | 575 kts | 56° |
| 2026-05-04 06:53 | -27.42167 | 163.66456 | 41112 ft | 575 kts | 56° |
| 2026-05-04 06:53 | -27.37606 | 163.73853 | 41116 ft | 575 kts | 56° |
| 2026-05-04 06:54 | -27.33069 | 163.81198 | 41110 ft | 575 kts | 56° |
| 2026-05-04 06:54 | -27.28498 | 163.88587 | 41124 ft | 575 kts | 56° |
| 2026-05-04 06:55 | -27.23928 | 163.95961 | 41125 ft | 574 kts | 56° |
| 2026-05-04 06:55 | -27.19358 | 164.03324 | 41106 ft | 574 kts | 56° |
| 2026-05-04 06:57 | -27.01071 | 164.32661 | 41125 ft | 574 kts | 56° |
| 2026-05-04 06:58 | -26.96478 | 164.40000 | 41109 ft | 574 kts | 56° |
| 2026-05-04 06:58 | -26.91893 | 164.47314 | 41111 ft | 573 kts | 56° |
| 2026-05-04 06:59 | -26.87302 | 164.54624 | 41121 ft | 573 kts | 56° |
| 2026-05-04 06:59 | -26.82709 | 164.61927 | 41106 ft | 573 kts | 56° |
| 2026-05-04 07:01 | -26.64340 | 164.91013 | 41108 ft | 572 kts | 56° |
| 2026-05-04 07:02 | -26.59736 | 164.98274 | 41105 ft | 572 kts | 56° |
| 2026-05-04 07:02 | -26.55132 | 165.05525 | 41108 ft | 572 kts | 56° |
| 2026-05-04 07:03 | -26.50521 | 165.12774 | 41103 ft | 572 kts | 56° |
| 2026-05-04 07:03 | -26.45912 | 165.20008 | 41106 ft | 572 kts | 56° |
| 2026-05-04 07:04 | -26.41294 | 165.27244 | 41104 ft | 572 kts | 56° |
| 2026-05-04 07:04 | -26.36699 | 165.34433 | 41099 ft | 572 kts | 56° |
| 2026-05-04 07:05 | -26.32077 | 165.41654 | 41102 ft | 572 kts | 56° |
| 2026-05-04 07:05 | -26.27451 | 165.48868 | 41097 ft | 571 kts | 56° |
| 2026-05-04 07:06 | -26.20505 | 165.59680 | 41099 ft | 571 kts | 56° |
| 2026-05-04 07:07 | -26.15899 | 165.66835 | 41099 ft | 571 kts | 56° |
| 2026-05-04 07:09 | -25.97343 | 165.95552 | 41097 ft | 571 kts | 56° |
| 2026-05-04 07:09 | -25.92694 | 166.02718 | 41090 ft | 571 kts | 56° |
| 2026-05-04 07:10 | -25.88075 | 166.09827 | 41090 ft | 571 kts | 56° |
| 2026-05-04 07:12 | -25.69441 | 166.38397 | 41063 ft | 570 kts | 56° |
| 2026-05-04 07:12 | -25.64807 | 166.45475 | 41063 ft | 570 kts | 56° |
| 2026-05-04 07:13 | -25.60145 | 166.52585 | 41064 ft | 570 kts | 56° |
| 2026-05-04 07:13 | -25.55482 | 166.59686 | 41064 ft | 570 kts | 56° |
| 2026-05-04 07:14 | -25.43809 | 166.77414 | 41054 ft | 569 kts | 56° |
| 2026-05-04 07:15 | -25.39170 | 166.84441 | 41054 ft | 569 kts | 56° |
| 2026-05-04 07:15 | -25.34491 | 166.91517 | 41054 ft | 569 kts | 56° |
| 2026-05-04 07:16 | -25.29811 | 166.98586 | 41046 ft | 569 kts | 56° |
| 2026-05-04 07:16 | -25.25129 | 167.05646 | 41042 ft | 569 kts | 56° |
| 2026-05-04 07:17 | -25.20447 | 167.12695 | 41046 ft | 569 kts | 56° |
| 2026-05-04 07:17 | -25.15755 | 167.19750 | 41047 ft | 569 kts | 56° |
| 2026-05-04 07:18 | -25.11065 | 167.26791 | 41045 ft | 569 kts | 56° |
| 2026-05-04 07:18 | -25.06402 | 167.33781 | 41036 ft | 568 kts | 56° |
| 2026-05-04 07:19 | -25.01716 | 167.40795 | 41037 ft | 568 kts | 56° |
| 2026-05-04 07:19 | -24.97031 | 167.47798 | 41032 ft | 568 kts | 56° |
| 2026-05-04 07:20 | -24.92332 | 167.54812 | 41036 ft | 568 kts | 56° |
| 2026-05-04 07:20 | -24.87640 | 167.61805 | 41033 ft | 568 kts | 56° |
| 2026-05-04 07:22 | -24.68851 | 167.89700 | 41031 ft | 567 kts | 56° |
| 2026-05-04 07:23 | -24.64142 | 167.96662 | 41022 ft | 567 kts | 56° |
| 2026-05-04 07:23 | -24.59423 | 168.03630 | 41029 ft | 567 kts | 56° |
| 2026-05-04 07:24 | -24.54713 | 168.10575 | 41029 ft | 567 kts | 56° |
| 2026-05-04 07:24 | -24.49995 | 168.17524 | 41028 ft | 567 kts | 56° |
| 2026-05-04 07:26 | -24.31121 | 168.45219 | 41013 ft | 567 kts | 56° |
| 2026-05-04 07:27 | -24.26395 | 168.52129 | 41020 ft | 567 kts | 56° |
| 2026-05-04 07:27 | -24.21653 | 168.59053 | 41016 ft | 567 kts | 56° |
| 2026-05-04 07:28 | -24.16915 | 168.65962 | 41014 ft | 567 kts | 56° |
| 2026-05-04 07:28 | -24.12202 | 168.72824 | 41014 ft | 567 kts | 56° |
| 2026-05-04 07:29 | -24.07455 | 168.79726 | 41019 ft | 567 kts | 56° |
| 2026-05-04 07:29 | -24.02703 | 168.86626 | 41006 ft | 567 kts | 56° |
| 2026-05-04 07:30 | -23.98751 | 168.92358 | 41005 ft | 568 kts | 56° |
| 2026-05-04 07:30 | -23.93994 | 168.99247 | 41009 ft | 568 kts | 56° |
| 2026-05-04 07:31 | -23.89229 | 169.06138 | 41010 ft | 568 kts | 56° |
| 2026-05-04 07:33 | -23.70117 | 169.33685 | 41004 ft | 569 kts | 56° |
| 2026-05-04 07:33 | -23.65332 | 169.40559 | 40998 ft | 569 kts | 56° |
| 2026-05-04 07:34 | -23.60540 | 169.47433 | 41001 ft | 570 kts | 56° |
| 2026-05-04 07:34 | -23.55770 | 169.54267 | 40998 ft | 570 kts | 56° |
| 2026-05-04 07:35 | -23.50959 | 169.61149 | 41000 ft | 570 kts | 56° |
| 2026-05-04 07:35 | -23.46144 | 169.68027 | 41000 ft | 570 kts | 56° |
| 2026-05-04 07:36 | -23.41357 | 169.74857 | 40999 ft | 570 kts | 56° |
| 2026-05-04 07:38 | -23.22107 | 170.02229 | 40999 ft | 569 kts | 55° |
| 2026-05-04 07:38 | -23.17291 | 170.09054 | 40998 ft | 568 kts | 55° |
| 2026-05-04 07:39 | -23.12486 | 170.15854 | 40991 ft | 567 kts | 55° |
| 2026-05-04 07:39 | -23.07674 | 170.22654 | 40991 ft | 567 kts | 55° |
| 2026-05-04 07:40 | -23.02875 | 170.29429 | 40989 ft | 566 kts | 54° |
| 2026-05-04 07:40 | -22.98067 | 170.36207 | 40990 ft | 565 kts | 54° |
| 2026-05-04 07:41 | -22.93272 | 170.42957 | 40990 ft | 565 kts | 54° |
| 2026-05-04 07:41 | -22.88498 | 170.49669 | 40989 ft | 565 kts | 54° |
| 2026-05-04 07:42 | -22.83702 | 170.56404 | 40980 ft | 564 kts | 54° |
| 2026-05-04 07:42 | -22.78906 | 170.63131 | 40980 ft | 564 kts | 54° |
| 2026-05-04 07:43 | -22.74106 | 170.69853 | 40981 ft | 564 kts | 54° |
| 2026-05-04 07:43 | -22.69301 | 170.76575 | 40981 ft | 564 kts | 54° |
| 2026-05-04 07:44 | -22.64496 | 170.83286 | 40980 ft | 563 kts | 54° |
| 2026-05-04 07:44 | -22.59692 | 170.89988 | 40980 ft | 562 kts | 54° |
| 2026-05-04 07:45 | -22.54928 | 170.96627 | 40981 ft | 562 kts | 54° |
| 2026-05-04 07:45 | -22.50128 | 171.03308 | 40972 ft | 562 kts | 54° |
| 2026-05-04 07:46 | -22.45320 | 171.09989 | 40972 ft | 561 kts | 54° |
| 2026-05-04 07:46 | -22.40528 | 171.16641 | 40969 ft | 561 kts | 53° |
| 2026-05-04 07:47 | -22.35732 | 171.23291 | 40972 ft | 560 kts | 53° |
| 2026-05-04 07:49 | -22.16591 | 171.49746 | 40972 ft | 559 kts | 53° |
| 2026-05-04 07:49 | -22.11795 | 171.56355 | 40970 ft | 559 kts | 53° |
| 2026-05-04 07:50 | -22.06995 | 171.62962 | 40955 ft | 558 kts | 53° |
| 2026-05-04 07:50 | -22.02195 | 171.69554 | 40952 ft | 559 kts | 53° |
| 2026-05-04 07:51 | -21.97422 | 171.76100 | 40952 ft | 559 kts | 53° |
| 2026-05-04 07:51 | -21.92617 | 171.82683 | 40954 ft | 559 kts | 53° |
| 2026-05-04 07:52 | -21.87816 | 171.89255 | 40955 ft | 558 kts | 53° |
| 2026-05-04 07:52 | -21.83002 | 171.95835 | 40952 ft | 558 kts | 53° |
| 2026-05-04 07:54 | -21.63803 | 172.22001 | 40952 ft | 557 kts | 53° |
| 2026-05-04 07:55 | -21.58993 | 172.28538 | 40952 ft | 557 kts | 52° |
| 2026-05-04 07:55 | -21.54188 | 172.35060 | 40952 ft | 556 kts | 52° |
| 2026-05-04 07:56 | -21.49380 | 172.41578 | 40952 ft | 556 kts | 52° |
| 2026-05-04 07:56 | -21.44570 | 172.48089 | 40953 ft | 556 kts | 52° |
| 2026-05-04 07:57 | -21.39795 | 172.54548 | 40952 ft | 555 kts | 52° |
| 2026-05-04 07:57 | -21.34994 | 172.61032 | 40952 ft | 555 kts | 52° |
| 2026-05-04 07:58 | -21.30194 | 172.67509 | 40952 ft | 554 kts | 52° |
| 2026-05-04 07:58 | -21.25392 | 172.73980 | 40952 ft | 553 kts | 52° |
| 2026-05-04 07:59 | -21.20596 | 172.80436 | 40952 ft | 553 kts | 51° |
| 2026-05-04 07:59 | -21.15835 | 172.86837 | 40952 ft | 552 kts | 51° |
| 2026-05-04 08:00 | -21.11056 | 172.93256 | 40952 ft | 551 kts | 51° |
| 2026-05-04 08:02 | -20.91944 | 173.18849 | 40952 ft | 549 kts | 51° |
| 2026-05-04 08:02 | -20.87170 | 173.25225 | 40952 ft | 548 kts | 51° |
| 2026-05-04 08:03 | -20.82405 | 173.31580 | 40952 ft | 548 kts | 51° |
| 2026-05-04 08:03 | -20.77659 | 173.37902 | 40952 ft | 547 kts | 50° |
| 2026-05-04 08:04 | -20.72896 | 173.44241 | 40953 ft | 547 kts | 50° |
| 2026-05-04 08:04 | -20.68118 | 173.50594 | 40952 ft | 548 kts | 50° |
| 2026-05-04 08:05 | -20.63374 | 173.56893 | 40952 ft | 547 kts | 50° |
| 2026-05-04 08:05 | -20.58594 | 173.63234 | 40952 ft | 547 kts | 50° |
| 2026-05-04 08:06 | -20.53814 | 173.69566 | 40953 ft | 547 kts | 50° |
| 2026-05-04 08:06 | -20.49039 | 173.75886 | 40947 ft | 546 kts | 50° |
| 2026-05-04 08:08 | -20.29985 | 174.01034 | 40943 ft | 545 kts | 49° |
| 2026-05-04 08:11 | -20.08573 | 174.29165 | 40934 ft | 543 kts | 49° |
| 2026-05-04 08:11 | -20.01423 | 174.38529 | 40934 ft | 543 kts | 49° |
| 2026-05-04 08:12 | -19.96688 | 174.44722 | 40934 ft | 543 kts | 49° |
| 2026-05-04 08:12 | -19.91914 | 174.50959 | 40934 ft | 543 kts | 49° |
| 2026-05-04 08:13 | -19.87138 | 174.57192 | 40934 ft | 544 kts | 49° |
| 2026-05-04 08:13 | -19.82352 | 174.63431 | 40934 ft | 543 kts | 49° |
| 2026-05-04 08:14 | -19.77572 | 174.69656 | 40934 ft | 544 kts | 48° |
| 2026-05-04 08:16 | -19.59269 | 174.93433 | 40925 ft | 542 kts | 48° |
| 2026-05-04 08:16 | -19.54485 | 174.99632 | 40925 ft | 542 kts | 47° |
| 2026-05-04 08:17 | -19.48930 | 175.06822 | 40925 ft | 542 kts | 47° |
| 2026-05-04 08:17 | -19.44955 | 175.11962 | 40924 ft | 542 kts | 47° |
| 2026-05-04 08:19 | -19.25867 | 175.36584 | 40924 ft | 541 kts | 47° |
| 2026-05-04 08:20 | -19.21083 | 175.42739 | 40949 ft | 540 kts | 47° |
| 2026-05-04 08:20 | -19.16303 | 175.48881 | 40963 ft | 540 kts | 47° |
| 2026-05-04 08:21 | -19.11553 | 175.54980 | 40964 ft | 540 kts | 47° |
| 2026-05-04 08:21 | -19.06767 | 175.61119 | 40961 ft | 540 kts | 46° |
| 2026-05-04 08:22 | -19.01983 | 175.67251 | 40961 ft | 541 kts | 46° |
| 2026-05-04 08:24 | -18.82869 | 175.91691 | 40959 ft | 531 kts | 46° |
| 2026-05-04 08:24 | -18.78172 | 175.97682 | 40961 ft | 528 kts | 46° |
| 2026-05-04 08:25 | -18.73475 | 176.03664 | 40961 ft | 527 kts | 45° |
| 2026-05-04 08:25 | -18.68854 | 176.09558 | 40312 ft | 522 kts | 45° |
| 2026-05-04 08:26 | -18.66529 | 176.12510 | 39523 ft | 523 kts | 45° |
| 2026-05-04 08:27 | -18.50313 | 176.33056 | 32752 ft | 516 kts | 45° |
| 2026-05-04 08:28 | -18.48003 | 176.35976 | 30959 ft | 519 kts | 45° |
| 2026-05-04 08:28 | -18.45680 | 176.38907 | 29052 ft | 523 kts | 46° |
| 2026-05-04 08:28 | -18.43339 | 176.41862 | 27158 ft | 526 kts | 46° |
| 2026-05-04 08:28 | -18.41032 | 176.44779 | 25549 ft | 522 kts | 46° |
| 2026-05-04 08:29 | -18.38725 | 176.47701 | 24030 ft | 513 kts | 46° |
| 2026-05-04 08:29 | -18.36466 | 176.50562 | 22536 ft | 504 kts | 46° |
| 2026-05-04 08:29 | -18.34248 | 176.53367 | 21140 ft | 493 kts | 46° |
| 2026-05-04 08:31 | -18.20512 | 176.70680 | 14296 ft | 369 kts | 48° |
| 2026-05-04 08:33 | -18.09889 | 176.84313 | 8937 ft | 293 kts | 59° |
| 2026-05-04 08:33 | -18.08899 | 176.86177 | 8623 ft | 291 kts | 63° |
| 2026-05-04 08:35 | -18.02875 | 176.99090 | 6601 ft | 273 kts | 65° |
| 2026-05-04 08:35 | -18.02047 | 177.00878 | 6324 ft | 271 kts | 65° |
| 2026-05-04 08:35 | -18.01224 | 177.02658 | 6047 ft | 269 kts | 65° |
| 2026-05-04 08:35 | -18.00408 | 177.04419 | 5772 ft | 267 kts | 65° |
| 2026-05-04 08:37 | -17.95351 | 177.15349 | 4474 ft | 306 kts | 66° |
| 2026-05-04 08:37 | -17.94442 | 177.17299 | 4095 ft | 285 kts | 66° |
| 2026-05-04 08:37 | -17.93601 | 177.19101 | 3671 ft | 265 kts | 66° |
| 2026-05-04 08:38 | -17.92816 | 177.20781 | 3299 ft | 247 kts | 67° |
| 2026-05-04 08:38 | -17.92090 | 177.22337 | 3012 ft | 228 kts | 67° |
| 2026-05-04 08:38 | -17.91413 | 177.23789 | 2702 ft | 214 kts | 67° |
| 2026-05-04 08:40 | -17.87241 | 177.32351 | 2004 ft | 176 kts | 78° |
| 2026-05-04 08:40 | -17.86930 | 177.33545 | 1990 ft | 159 kts | 78° |
| 2026-05-04 08:40 | -17.86660 | 177.34590 | 1978 ft | 139 kts | 78° |
| 2026-05-04 08:41 | -17.86289 | 177.35525 | 1991 ft | 142 kts | 63° |
| 2026-05-04 08:41 | -17.85590 | 177.36264 | 1998 ft | 144 kts | 35° |
| 2026-05-04 08:41 | -17.84760 | 177.36816 | 1902 ft | 142 kts | 38° |
| 2026-05-04 08:41 | -17.83999 | 177.37464 | 1709 ft | 140 kts | 43° |
| 2026-05-04 08:42 | -17.83233 | 177.38094 | 1511 ft | 139 kts | 40° |
| 2026-05-04 08:42 | -17.82462 | 177.38712 | 1340 ft | 139 kts | 39° |
| 2026-05-04 08:42 | -17.81695 | 177.39333 | 1143 ft | 139 kts | 39° |
| 2026-05-04 08:42 | -17.80931 | 177.39952 | 955 ft | 138 kts | 39° |
| 2026-05-04 08:43 | -17.80170 | 177.40569 | 750 ft | 138 kts | 38° |
| 2026-05-04 08:43 | -17.79412 | 177.41183 | 590 ft | 138 kts | 38° |
| 2026-05-04 08:43 | -17.78656 | 177.41794 | 424 ft | 136 kts | 38° |
| 2026-05-04 08:43 | -17.77904 | 177.42393 | 274 ft | 137 kts | 38° |
| 2026-05-04 08:44 | -17.77155 | 177.43002 | 100 ft | 135 kts | 38° |
| 2026-05-04 08:44 | -17.76435 | 177.43582 | 51 ft | 123 kts | 38° |
| 2026-05-04 08:46 | -17.75150 | 177.44862 | 51 ft | 9 kts | 104° |
| 2026-05-04 08:46 | -17.75152 | 177.44872 | 53 ft | 0 kts | 104° |
| 2026-05-04 08:46 | -17.75153 | 177.44873 | 52 ft | 2 kts | 104° |
| 2026-05-04 08:47 | -17.75163 | 177.44914 | 48 ft | 7 kts | 104° |
| 2026-05-04 08:47 | -17.75173 | 177.44957 | 53 ft | 6 kts | 104° |
| 2026-05-04 08:47 | -17.75181 | 177.44988 | 53 ft | 4 kts | 105° |
| 2026-05-04 08:47 | -17.75185 | 177.45005 | 53 ft | 1 kts | 104° |